Cuba, Kansas
Current Conditions -  °F | °C
As of 8:55 PM on Sunday 23 Nov 2014 (Local Time) from KCNK Reporting Station
Clear Clear  
Wind Chill: 30°   Ceiling: Unl
Heat Index: 37°   Visibility: 10mi
Dew Point: 31°   Wind: 9mph
Humidity: 79%   Direction: 290°WNW
Pressure: 29.64"   Gusts: NA
Location:  39.8°N, 97.46°W
Report Text: KCNK 240255Z AUTO 29008KT 10SM CLR 03/M01 A2964 RMK AO2 SLP039 T00281006 51013
Loading
Personal Weather Stations






























Interactive Weather Map New forecast layout! Learn more

10-Day Weather Forecast

Advertisements
Track Severe Weather on mobile